Time;durP1;ratioP1;P1;durP2;ratioP2;P2;SDS_P1;SDS_P2;PMS_P1;PMS_P2;Temp;Humidity;BMP_temperature;BMP_pressure;BME280_temperature;BME280_humidity;BME280_pressure;Samples;Min_cycle;Max_cycle;Signal;HPM_P1;HPM_P2
2021/03/12 00:02:21;;;;;;;7.43;1.60;;;4.40;92.60;;;;;;5023280;28;20033;-66
2021/03/12 00:04:47;;;;;;;8.45;1.30;;;4.30;92.80;;;;;;5017347;28;20566;-68
2021/03/12 00:07:13;;;;;;;5.07;1.70;;;4.40;92.70;;;;;;5025302;28;20025;-67
2021/03/12 00:09:38;;;;;;;5.65;1.50;;;4.40;92.60;;;;;;5018827;28;20478;-67
2021/03/12 00:12:04;;;;;;;4.80;1.48;;;4.40;92.90;;;;;;5020030;28;20034;-67
2021/03/12 00:14:30;;;;;;;9.55;1.58;;;4.40;92.90;;;;;;5013752;28;20427;-69
2021/03/12 00:16:55;;;;;;;10.85;2.05;;;4.40;93.00;;;;;;5020798;28;20063;-67
2021/03/12 00:19:21;;;;;;;4.22;1.50;;;4.40;92.70;;;;;;4994619;28;20030;-69
2021/03/12 00:21:47;;;;;;;5.85;1.42;;;4.50;92.60;;;;;;5014023;28;20026;-67
2021/03/12 00:24:12;;;;;;;5.47;1.92;;;4.50;92.40;;;;;;5015585;28;20467;-66
2021/03/12 00:26:38;;;;;;;7.88;1.55;;;4.50;92.30;;;;;;5015871;28;20022;-67
2021/03/12 00:29:04;;;;;;;10.25;1.83;;;4.60;92.10;;;;;;5010729;28;20038;-67
2021/03/12 00:31:29;;;;;;;6.88;1.42;;;4.60;91.80;;;;;;5014976;28;20120;-67
2021/03/12 00:33:55;;;;;;;5.13;1.30;;;4.70;91.50;;;;;;5020466;28;20386;-71
2021/03/12 00:36:21;;;;;;;8.25;1.83;;;4.70;91.60;;;;;;5016876;28;20025;-68
2021/03/12 00:38:46;;;;;;;10.43;1.77;;;4.60;91.40;;;;;;5013880;28;20041;-67
2021/03/12 00:41:12;;;;;;;6.00;1.60;;;4.60;91.70;;;;;;5015478;28;20037;-68
2021/03/12 00:43:38;;;;;;;8.93;2.00;;;4.60;91.90;;;;;;5017632;28;20507;-69
2021/03/12 00:46:09;;;;;;;10.40;1.90;;;4.50;91.90;;;;;;5020300;28;20368;-67
2021/03/12 00:48:35;;;;;;;6.80;1.58;;;4.60;91.10;;;;;;5015894;28;20245;-68
2021/03/12 00:51:02;;;;;;;7.15;1.60;;;4.60;91.40;;;;;;5018884;28;20128;-67
2021/03/12 00:53:28;;;;;;;8.80;1.80;;;4.60;91.20;;;;;;5015396;28;20041;-67
2021/03/12 00:55:54;;;;;;;9.10;2.05;;;4.60;91.30;;;;;;5017136;28;20022;-67
2021/03/12 00:58:22;;;;;;;7.07;1.90;;;4.60;91.20;;;;;;5018517;28;20033;-68
2021/03/12 01:00:48;;;;;;;7.38;1.70;;;4.70;90.20;;;;;;5003506;28;20409;-69
2021/03/12 01:03:13;;;;;;;5.35;1.27;;;4.60;90.30;;;;;;5022448;28;20017;-69
2021/03/12 01:05:40;;;;;;;8.48;1.70;;;4.70;90.00;;;;;;5024354;28;20052;-68
2021/03/12 01:08:06;;;;;;;5.75;1.70;;;4.70;89.70;;;;;;5016158;28;20026;-68
2021/03/12 01:10:32;;;;;;;7.03;1.33;;;4.70;89.70;;;;;;5019000;28;20030;-67
2021/03/12 01:12:58;;;;;;;9.50;1.30;;;4.60;89.80;;;;;;5023382;28;20072;-67
2021/03/12 01:15:25;;;;;;;6.10;1.80;;;4.60;89.90;;;;;;5018554;28;20057;-68
2021/03/12 01:17:52;;;;;;;8.13;1.50;;;4.60;90.00;;;;;;5018349;28;20500;-68
2021/03/12 01:20:24;;;;;;;7.30;1.67;;;4.60;90.00;;;;;;5018074;28;20506;-68
2021/03/12 01:22:51;;;;;;;8.80;1.77;;;4.50;90.00;;;;;;5020638;28;20043;-68
2021/03/12 01:25:20;;;;;;;6.28;1.20;;;4.50;89.70;;;;;;5016538;28;20037;-67
2021/03/12 01:27:46;;;;;;;6.60;1.60;;;4.30;90.20;;;;;;5018549;28;20029;-68
2021/03/12 01:30:38;;;;;;;6.50;1.75;;;4.30;90.20;;;;;;5017280;28;20025;-68
2021/03/12 01:33:04;;;;;;;;;;;4.30;90.20;;;;;;5021437;28;20037;-69
2021/03/12 01:35:30;;;;;;;10.02;1.90;;;4.20;90.50;;;;;;5018576;28;19909;-69
2021/03/12 01:37:57;;;;;;;8.07;1.60;;;4.30;90.20;;;;;;5018144;28;20121;-69
2021/03/12 01:40:26;;;;;;;7.95;2.13;;;4.20;90.60;;;;;;5014528;28;20034;-69
2021/03/12 01:42:52;;;;;;;5.72;1.23;;;4.10;90.80;;;;;;5022374;28;20034;-68
2021/03/12 01:45:28;;;;;;;6.45;1.95;;;4.20;90.70;;;;;;5019553;28;20067;-68
2021/03/12 01:47:54;;;;;;;7.32;1.92;;;4.20;90.50;;;;;;5018992;28;20026;-67
2021/03/12 01:50:20;;;;;;;9.70;1.65;;;4.20;90.60;;;;;;5018640;28;20052;-67
2021/03/12 01:52:46;;;;;;;5.93;2.00;;;4.10;91.00;;;;;;5020940;28;20393;-67
2021/03/12 01:55:21;;;;;;;10.00;1.83;;;4.20;90.70;;;;;;5018727;28;20029;-67
2021/03/12 01:57:47;;;;;;;13.50;2.42;;;4.20;90.80;;;;;;5017901;28;20046;-67
2021/03/12 02:00:13;;;;;;;8.07;1.70;;;4.10;91.30;;;;;;5014770;28;20040;-67
2021/03/12 02:02:40;;;;;;;4.75;1.98;;;4.10;91.40;;;;;;5020514;28;20037;-67
2021/03/12 02:05:08;;;;;;;9.68;2.92;;;4.10;91.60;;;;;;5021126;28;20033;-68
2021/03/12 02:07:38;;;;;;;10.63;2.30;;;4.20;91.70;;;;;;5016879;28;20116;-67
2021/03/12 02:10:07;;;;;;;7.15;2.95;;;4.20;91.60;;;;;;5013580;28;20394;-67
2021/03/12 02:12:38;;;;;;;5.22;2.17;;;4.30;91.60;;;;;;5015033;28;20064;-67
2021/03/12 02:15:11;;;;;;;6.25;2.35;;;4.50;91.00;;;;;;5015404;28;20374;-67
2021/03/12 02:17:51;;;;;;;10.52;2.53;;;4.50;91.20;;;;;;5017972;28;20481;-70
2021/03/12 02:20:39;;;;;;;8.63;3.03;;;4.50;91.70;;;;;;5018740;28;20088;-68
2021/03/12 02:23:26;;;;;;;11.70;2.92;;;4.60;91.30;;;;;;5011539;28;20030;-69
2021/03/12 02:26:03;;;;;;;8.82;3.05;;;4.70;91.30;;;;;;5024768;28;20506;-69
2021/03/12 02:28:30;;;;;;;7.63;2.92;;;4.70;91.20;;;;;;5006007;28;20080;-67
2021/03/12 02:30:57;;;;;;;12.55;3.15;;;4.70;91.30;;;;;;5019458;28;20509;-67
2021/03/12 02:33:25;;;;;;;10.52;3.00;;;4.70;91.10;;;;;;5012264;28;20032;-67
2021/03/12 02:35:55;;;;;;;8.60;2.88;;;4.70;91.30;;;;;;5025755;28;20064;-68
2021/03/12 02:38:27;;;;;;;14.02;3.33;;;4.80;91.10;;;;;;5015934;28;20323;-67
2021/03/12 02:40:55;;;;;;;10.63;3.70;;;4.80;91.10;;;;;;5022722;28;20088;-69
2021/03/12 02:43:21;;;;;;;13.52;3.65;;;4.70;91.50;;;;;;5015220;28;20030;-68
2021/03/12 02:45:48;;;;;;;12.98;3.50;;;4.80;91.40;;;;;;5014512;28;20036;-67
2021/03/12 02:48:15;;;;;;;13.10;3.35;;;4.80;91.50;;;;;;5014564;28;20112;-71
2021/03/12 02:50:41;;;;;;;12.43;3.83;;;4.80;91.40;;;;;;5012382;28;20122;-67
2021/03/12 02:53:07;;;;;;;18.42;3.40;;;4.80;91.60;;;;;;5015574;28;20030;-67
2021/03/12 02:55:35;;;;;;;11.90;3.35;;;4.80;91.50;;;;;;5017326;28;20069;-68
2021/03/12 02:58:01;;;;;;;12.73;3.42;;;4.90;91.30;;;;;;5012831;28;20053;-67
2021/03/12 03:00:27;;;;;;;16.13;3.92;;;4.90;91.10;;;;;;5035426;28;20060;-68
2021/03/12 03:02:53;;;;;;;14.82;3.67;;;4.90;91.30;;;;;;5020041;28;20036;-69
2021/03/12 03:05:20;;;;;;;15.35;4.30;;;4.90;91.30;;;;;;5028556;28;20022;-67
2021/03/12 03:07:49;;;;;;;10.82;3.53;;;4.90;91.10;;;;;;5015037;28;20034;-67
2021/03/12 03:10:17;;;;;;;12.32;3.63;;;5.00;91.00;;;;;;5021850;28;20028;-68
2021/03/12 03:12:45;;;;;;;14.13;3.80;;;5.00;91.20;;;;;;5019122;28;20376;-66
2021/03/12 03:15:13;;;;;;;18.83;3.85;;;4.90;91.10;;;;;;5023709;28;20032;-67
2021/03/12 03:17:39;;;;;;;13.25;4.00;;;5.00;90.90;;;;;;5025049;28;20516;-67
2021/03/12 03:20:08;;;;;;;17.02;3.95;;;5.00;91.00;;;;;;5019882;28;20040;-67
2021/03/12 03:22:34;;;;;;;17.40;3.95;;;5.10;90.10;;;;;;5025238;28;20021;-70
2021/03/12 03:25:00;;;;;;;13.73;3.78;;;5.10;90.10;;;;;;5018310;28;20142;-67
2021/03/12 03:27:26;;;;;;;10.90;3.80;;;5.10;90.40;;;;;;5016557;28;20057;-67
2021/03/12 03:29:51;;;;;;;13.38;3.70;;;5.10;90.20;;;;;;5016437;28;20477;-67
2021/03/12 03:32:17;;;;;;;12.40;3.80;;;5.10;90.30;;;;;;5014381;28;20045;-68
2021/03/12 03:34:43;;;;;;;14.18;4.15;;;5.10;90.40;;;;;;5010471;28;20038;-67
2021/03/12 03:37:09;;;;;;;16.30;3.90;;;5.10;90.30;;;;;;5019874;28;20104;-68
2021/03/12 03:39:35;;;;;;;11.55;3.63;;;5.10;90.10;;;;;;5019782;28;20467;-69
2021/03/12 03:42:04;;;;;;;9.05;4.05;;;5.10;90.00;;;;;;5019811;28;20150;-67
2021/03/12 03:44:33;;;;;;;14.73;4.18;;;5.10;90.10;;;;;;5019943;28;20524;-68
2021/03/12 03:47:01;;;;;;;18.92;4.68;;;5.10;90.10;;;;;;5029290;28;20360;-68
2021/03/12 03:49:28;;;;;;;11.95;3.42;;;5.10;89.90;;;;;;5019750;28;20109;-68
2021/03/12 03:51:55;;;;;;;11.77;3.38;;;5.10;89.90;;;;;;5016075;28;20030;-68
2021/03/12 03:54:21;;;;;;;12.70;3.58;;;5.20;89.40;;;;;;5017151;28;20521;-68
2021/03/12 03:56:49;;;;;;;8.82;3.28;;;5.20;89.10;;;;;;5019973;28;20083;-67
2021/03/12 03:59:15;;;;;;;9.90;3.15;;;5.20;89.00;;;;;;5013095;28;20636;-69
2021/03/12 04:01:42;;;;;;;10.30;3.20;;;5.30;88.50;;;;;;5023801;28;20394;-67
2021/03/12 04:04:09;;;;;;;14.80;3.28;;;5.30;88.00;;;;;;5022504;28;20307;-70
2021/03/12 04:06:36;;;;;;;11.35;3.20;;;5.20;87.90;;;;;;5019827;28;20051;-69
2021/03/12 04:09:03;;;;;;;8.73;2.83;;;5.30;88.00;;;;;;5008898;28;20033;-67
2021/03/12 04:11:33;;;;;;;14.73;3.20;;;5.20;88.10;;;;;;5013875;28;20048;-70
2021/03/12 04:14:00;;;;;;;7.55;2.38;;;5.20;87.60;;;;;;5013214;28;20056;-67
2021/03/12 04:16:26;;;;;;;13.30;2.63;;;5.30;87.10;;;;;;5012710;28;20508;-70
2021/03/12 04:18:53;;;;;;;6.43;2.17;;;5.30;87.10;;;;;;5019354;28;20095;-67
2021/03/12 04:21:20;;;;;;;7.32;2.80;;;5.30;86.40;;;;;;4998862;28;20052;-68
2021/03/12 04:23:45;;;;;;;8.88;2.85;;;5.40;86.00;;;;;;5018601;28;20137;-68
2021/03/12 04:26:12;;;;;;;8.00;2.03;;;5.40;85.80;;;;;;5020336;28;20104;-68
2021/03/12 04:28:38;;;;;;;11.68;2.30;;;5.50;84.90;;;;;;5015297;28;20052;-68
2021/03/12 04:31:04;;;;;;;11.52;2.90;;;5.40;85.60;;;;;;5009965;28;20030;-68
2021/03/12 04:33:30;;;;;;;12.80;2.78;;;5.40;85.30;;;;;;5009461;28;20025;-67
2021/03/12 04:35:56;;;;;;;9.10;2.30;;;5.40;85.20;;;;;;5013136;28;20061;-70
2021/03/12 04:38:23;;;;;;;6.75;2.38;;;5.30;85.60;;;;;;5009817;28;20060;-68
2021/03/12 04:40:50;;;;;;;9.13;2.53;;;5.30;85.30;;;;;;5020873;28;20049;-69
2021/03/12 04:43:16;;;;;;;13.70;2.20;;;5.30;85.10;;;;;;5021602;28;20401;-69
2021/03/12 04:45:43;;;;;;;7.03;2.40;;;5.50;83.90;;;;;;5018656;28;20021;-69
2021/03/12 04:48:10;;;;;;;10.35;2.58;;;5.50;83.60;;;;;;5024342;28;20371;-67
2021/03/12 04:50:36;;;;;;;12.52;2.40;;;5.40;85.00;;;;;;5022260;28;20108;-68
2021/03/12 04:53:03;;;;;;;13.05;2.60;;;5.30;84.90;;;;;;5020958;28;20033;-69
2021/03/12 04:55:28;;;;;;;5.28;2.10;;;5.30;85.40;;;;;;5018324;28;20617;-68
2021/03/12 04:57:55;;;;;;;10.82;2.78;;;5.30;85.10;;;;;;5016690;28;20113;-68
2021/03/12 05:00:21;;;;;;;8.27;2.35;;;5.30;84.60;;;;;;5023332;28;20037;-68
2021/03/12 05:02:48;;;;;;;10.70;2.58;;;5.30;85.20;;;;;;5009857;28;20133;-69
2021/03/12 05:05:15;;;;;;;9.70;2.33;;;5.30;84.80;;;;;;5025406;28;20025;-69
2021/03/12 05:07:43;;;;;;;6.40;2.22;;;5.30;84.50;;;;;;5012584;28;20056;-67
2021/03/12 05:10:09;;;;;;;9.73;2.78;;;5.30;84.10;;;;;;5019120;28;20456;-69
2021/03/12 05:12:34;;;;;;;17.13;2.70;;;5.30;84.90;;;;;;5020866;28;20121;-68
2021/03/12 05:15:00;;;;;;;8.85;2.50;;;5.20;85.00;;;;;;5017927;28;20457;-67
2021/03/12 05:17:26;;;;;;;7.13;2.30;;;5.30;85.10;;;;;;5020347;28;20402;-68
2021/03/12 05:19:53;;;;;;;12.90;2.80;;;5.20;85.10;;;;;;5018855;28;20040;-68
2021/03/12 05:22:18;;;;;;;14.00;3.17;;;5.20;85.10;;;;;;5018233;28;20049;-68
2021/03/12 05:24:44;;;;;;;7.13;2.15;;;5.20;85.10;;;;;;5018900;28;20093;-67
2021/03/12 05:27:10;;;;;;;13.93;2.92;;;5.10;85.60;;;;;;5021090;28;20025;-70
2021/03/12 05:29:36;;;;;;;10.75;2.15;;;5.10;85.60;;;;;;5018034;28;20437;-68
2021/03/12 05:32:02;;;;;;;9.93;2.88;;;5.20;84.20;;;;;;5017633;28;20575;-67
2021/03/12 05:34:27;;;;;;;6.45;2.00;;;5.30;82.60;;;;;;5016817;28;20033;-69
2021/03/12 05:36:53;;;;;;;9.50;2.50;;;5.40;82.00;;;;;;5019073;28;20398;-67
2021/03/12 05:39:22;;;;;;;11.30;2.63;;;5.30;82.70;;;;;;5020177;28;20037;-67
2021/03/12 05:41:48;;;;;;;7.97;2.47;;;5.30;82.50;;;;;;5012247;28;20026;-67
2021/03/12 05:44:16;;;;;;;9.93;2.88;;;5.30;82.00;;;;;;5017902;28;20021;-67
2021/03/12 05:46:42;;;;;;;9.15;2.45;;;5.30;82.20;;;;;;5024163;28;20552;-69
2021/03/12 05:49:09;;;;;;;9.43;2.30;;;5.20;83.70;;;;;;5017467;28;20037;-68
2021/03/12 05:51:35;;;;;;;9.85;2.58;;;5.20;82.70;;;;;;5016404;28;20034;-67
2021/03/12 05:54:02;;;;;;;9.07;2.05;;;5.20;81.90;;;;;;5010768;28;20033;-67
2021/03/12 05:56:28;;;;;;;8.95;1.65;;;5.20;80.50;;;;;;5012460;28;20025;-67
2021/03/12 05:58:54;;;;;;;10.50;2.10;;;5.30;79.60;;;;;;5013487;28;20502;-68
2021/03/12 06:01:20;;;;;;;9.57;2.00;;;5.40;79.10;;;;;;5009896;28;20092;-69
2021/03/12 06:03:46;;;;;;;6.57;1.80;;;5.30;78.80;;;;;;5021293;28;20486;-68
2021/03/12 06:06:11;;;;;;;9.48;2.00;;;5.30;79.00;;;;;;5018974;28;20032;-70
2021/03/12 06:08:37;;;;;;;7.30;1.90;;;5.20;80.10;;;;;;5025866;28;20100;-67
2021/03/12 06:11:06;;;;;;;8.65;1.88;;;5.20;79.40;;;;;;5015655;28;20092;-68
2021/03/12 06:13:52;;;;;;;9.77;2.03;;;5.10;80.10;;;;;;5011570;28;20037;-68
2021/03/12 06:16:25;;;;;;;9.60;1.88;;;5.10;80.70;;;;;;5010104;28;20353;-67
2021/03/12 06:19:13;;;;;;;14.40;2.10;;;5.10;81.50;;;;;;5009991;28;20410;-67
2021/03/12 06:21:43;;;;;;;11.40;2.70;;;5.10;81.50;;;;;;5016052;28;20026;-70
2021/03/12 06:24:21;;;;;;;8.07;1.77;;;5.00;82.20;;;;;;5020653;28;20032;-68
2021/03/12 06:26:47;;;;;;;12.27;2.60;;;5.10;81.80;;;;;;5014640;28;20026;-67
2021/03/12 06:29:12;;;;;;;9.50;2.05;;;5.10;82.40;;;;;;5012227;28;20025;-67
2021/03/12 06:31:38;;;;;;;5.57;1.80;;;5.10;83.00;;;;;;5018977;28;20504;-67
2021/03/12 06:34:08;;;;;;;12.80;2.28;;;5.10;82.70;;;;;;5022973;28;20462;-67
2021/03/12 06:36:34;;;;;;;10.18;2.10;;;5.10;82.80;;;;;;5026627;28;20017;-68
2021/03/12 06:38:59;;;;;;;6.63;2.28;;;5.10;82.80;;;;;;5020454;28;20060;-68
2021/03/12 06:41:42;;;;;;;7.28;2.55;;;5.10;82.80;;;;;;5014034;28;20402;-66
2021/03/12 06:44:33;;;;;;;8.30;2.13;;;5.10;83.00;;;;;;5016144;28;20485;-68
2021/03/12 06:47:00;;;;;;;10.13;1.98;;;5.20;82.00;;;;;;5026932;28;20160;-68
2021/03/12 06:49:26;;;;;;;8.45;2.10;;;5.30;81.70;;;;;;5014752;28;20112;-67
2021/03/12 06:51:57;;;;;;;7.47;1.85;;;5.20;82.10;;;;;;5022902;28;20040;-67
2021/03/12 06:54:23;;;;;;;;;;;5.20;81.30;;;;;;5017922;28;20036;-68
2021/03/12 06:56:49;;;;;;;6.60;2.08;;;5.30;81.60;;;;;;5021488;28;19924;-69
2021/03/12 06:59:25;;;;;;;11.95;2.10;;;5.30;81.10;;;;;;5021847;28;20091;-68
2021/03/12 07:02:04;;;;;;;9.82;2.35;;;5.30;81.70;;;;;;5019070;28;20044;-68
2021/03/12 07:04:31;;;;;;;5.55;2.30;;;5.30;81.40;;;;;;5020371;28;20493;-69
2021/03/12 07:06:58;;;;;;;6.38;1.98;;;5.40;80.80;;;;;;5017947;28;20028;-68
2021/03/12 07:09:26;;;;;;;6.38;2.33;;;5.40;80.80;;;;;;5026485;28;20083;-68
2021/03/12 07:12:03;;;;;;;10.82;2.65;;;5.40;80.90;;;;;;5022939;28;20029;-68
2021/03/12 07:14:34;;;;;;;11.93;2.38;;;5.40;81.00;;;;;;5016133;28;20033;-67
2021/03/12 07:17:00;;;;;;;9.45;2.42;;;5.50;80.60;;;;;;5020127;28;20501;-68
2021/03/12 07:19:26;;;;;;;9.57;2.03;;;5.50;80.90;;;;;;5008725;28;20108;-67
2021/03/12 07:21:58;;;;;;;10.07;2.20;;;5.50;80.00;;;;;;5011700;28;20585;-69
2021/03/12 07:24:25;;;;;;;10.30;2.15;;;5.60;80.50;;;;;;5024493;28;20102;-68
2021/03/12 07:26:56;;;;;;;13.40;2.10;;;5.60;79.60;;;;;;5013795;28;20025;-67
2021/03/12 07:29:32;;;;;;;10.10;2.30;;;5.60;80.20;;;;;;5017217;28;20062;-68
2021/03/12 07:31:59;;;;;;;8.80;2.38;;;5.60;79.90;;;;;;5028209;28;20059;-68
2021/03/12 07:34:29;;;;;;;13.70;2.47;;;5.60;80.20;;;;;;5018163;28;20029;-68
2021/03/12 07:36:57;;;;;;;9.73;2.25;;;5.60;80.80;;;;;;5016204;28;20518;-68
2021/03/12 07:39:34;;;;;;;17.02;2.28;;;5.60;80.90;;;;;;5023899;28;20049;-68
2021/03/12 07:42:00;;;;;;;9.90;2.38;;;5.60;80.20;;;;;;5025616;28;20063;-68
2021/03/12 07:44:26;;;;;;;7.72;1.77;;;5.60;80.10;;;;;;5020689;28;20029;-68
2021/03/12 07:46:52;;;;;;;7.78;2.03;;;5.70;80.10;;;;;;5018281;28;20661;-68
2021/03/12 07:49:27;;;;;;;8.75;2.47;;;5.70;80.10;;;;;;5015163;28;20087;-67
2021/03/12 07:51:53;;;;;;;9.63;2.35;;;5.70;80.00;;;;;;5016693;28;20034;-68
2021/03/12 07:54:42;;;;;;;5.45;1.92;;;5.70;80.40;;;;;;5014558;28;20306;-68
2021/03/12 07:57:08;;;;;;;10.93;2.58;;;5.80;79.80;;;;;;5021291;28;20040;-68
2021/03/12 07:59:46;;;;;;;11.05;2.22;;;5.80;80.20;;;;;;5016961;28;20166;-68
2021/03/12 08:02:13;;;;;;;8.65;2.10;;;5.80;80.40;;;;;;5023023;28;20029;-68
2021/03/12 08:04:38;;;;;;;4.00;1.77;;;5.90;79.90;;;;;;5016505;28;20547;-68
2021/03/12 08:07:20;;;;;;;10.82;2.15;;;5.90;79.30;;;;;;5020219;28;20029;-68
2021/03/12 08:09:55;;;;;;;7.88;1.77;;;6.00;80.00;;;;;;5015840;28;20030;-68
2021/03/12 08:12:34;;;;;;;8.85;1.90;;;6.00;79.50;;;;;;5019387;28;20034;-68
2021/03/12 08:15:26;;;;;;;9.82;2.28;;;6.10;79.30;;;;;;5022182;28;20037;-68
2021/03/12 08:17:57;;;;;;;9.85;1.85;;;6.00;79.50;;;;;;5019009;28;20025;-69
2021/03/12 08:20:23;;;;;;;4.88;1.25;;;6.10;79.30;;;;;;5013266;28;20029;-68
2021/03/12 08:22:50;;;;;;;11.15;2.13;;;6.00;79.30;;;;;;5025928;28;20536;-67
2021/03/12 08:25:31;;;;;;;7.75;2.25;;;6.10;79.90;;;;;;5017515;28;20475;-69
2021/03/12 08:28:00;;;;;;;10.90;2.30;;;6.10;80.00;;;;;;5017655;28;20177;-66
2021/03/12 08:30:26;;;;;;;13.43;2.42;;;6.10;79.80;;;;;;5018374;28;20029;-68
2021/03/12 08:32:53;;;;;;;8.82;2.35;;;6.10;79.90;;;;;;5012322;28;20032;-67
2021/03/12 08:35:38;;;;;;;8.10;2.10;;;6.10;79.40;;;;;;5012905;28;20038;-69
2021/03/12 08:38:25;;;;;;;8.10;2.03;;;6.30;79.10;;;;;;5017080;28;20104;-68
2021/03/12 08:40:56;;;;;;;5.18;2.05;;;6.70;78.10;;;;;;5022141;28;20419;-68
2021/03/12 08:43:25;;;;;;;6.13;1.95;;;6.90;76.80;;;;;;5014671;28;20615;-70
2021/03/12 08:45:57;;;;;;;9.07;1.70;;;7.00;77.10;;;;;;5019222;28;20510;-68
2021/03/12 08:48:29;;;;;;;7.35;2.15;;;7.10;76.30;;;;;;5018968;28;20025;-68
2021/03/12 08:51:13;;;;;;;15.77;2.63;;;7.40;76.50;;;;;;5010320;28;20503;-67
2021/03/12 08:53:44;;;;;;;9.32;2.22;;;7.20;76.60;;;;;;5017519;28;20557;-68
2021/03/12 08:56:10;;;;;;;8.90;1.80;;;7.20;76.80;;;;;;5018108;28;20021;-70
2021/03/12 08:58:40;;;;;;;8.57;1.83;;;7.00;75.80;;;;;;5021650;28;20084;-68
2021/03/12 09:01:14;;;;;;;10.80;2.38;;;6.90;76.20;;;;;;5032929;28;20051;-66
2021/03/12 09:03:46;;;;;;;8.07;2.20;;;6.80;76.30;;;;;;5011869;28;20542;-68
2021/03/12 09:06:18;;;;;;;7.85;2.17;;;6.80;75.60;;;;;;5023358;28;20033;-70
2021/03/12 09:08:48;;;;;;;4.88;2.25;;;7.00;76.70;;;;;;5014249;28;20030;-67
2021/03/12 09:11:17;;;;;;;9.25;1.98;;;7.00;76.70;;;;;;5023455;28;20021;-67
2021/03/12 09:13:44;;;;;;;7.78;2.40;;;7.00;76.40;;;;;;5017545;28;20029;-70
2021/03/12 09:16:15;;;;;;;7.80;2.25;;;7.10;77.50;;;;;;5036716;28;20032;-66
2021/03/12 09:18:41;;;;;;;9.25;2.50;;;6.80;75.30;;;;;;5018841;28;20041;-67
2021/03/12 09:21:09;;;;;;;12.25;2.42;;;6.70;75.50;;;;;;5017462;28;20083;-68
2021/03/12 09:23:55;;;;;;;13.23;2.60;;;6.70;76.20;;;;;;5014857;28;20105;-67
2021/03/12 09:26:29;;;;;;;13.35;2.85;;;6.70;76.60;;;;;;5021687;28;20053;-66
2021/03/12 09:28:57;;;;;;;8.07;2.50;;;6.80;76.70;;;;;;5018047;28;20444;-66
2021/03/12 09:31:34;;;;;;;7.13;2.80;;;6.70;76.50;;;;;;5024165;28;20025;-67
2021/03/12 09:34:01;;;;;;;7.65;3.03;;;6.60;76.50;;;;;;5016375;28;20043;-67
2021/03/12 09:36:42;;;;;;;7.00;2.40;;;6.60;76.70;;;;;;5013913;28;20032;-66
2021/03/12 09:39:12;;;;;;;9.83;2.30;;;6.60;75.80;;;;;;5008707;28;20037;-68
2021/03/12 09:41:43;;;;;;;10.23;3.05;;;6.60;75.80;;;;;;5023691;28;20272;-67
2021/03/12 09:44:14;;;;;;;6.10;2.53;;;6.70;75.60;;;;;;5019827;28;20159;-68
2021/03/12 09:46:45;;;;;;;;;;;6.70;75.90;;;;;;5020312;28;20032;-67
2021/03/12 09:49:19;;;;;;;8.60;2.40;;;6.80;75.70;;;;;;5018194;28;20011;-68
2021/03/12 09:51:50;;;;;;;15.18;2.80;;;6.80;76.20;;;;;;5015239;28;20034;-67
2021/03/12 09:54:17;;;;;;;9.80;3.28;;;6.80;75.40;;;;;;5016789;28;20022;-68
2021/03/12 09:56:55;;;;;;;9.27;2.58;;;7.00;75.90;;;;;;5019326;28;20045;-68
2021/03/12 09:59:29;;;;;;;10.73;3.05;;;7.10;75.80;;;;;;5010321;28;20021;-66
2021/03/12 10:02:05;;;;;;;7.47;2.38;;;7.10;74.30;;;;;;5018028;28;20038;-66
2021/03/12 10:04:36;;;;;;;10.77;2.92;;;7.10;73.20;;;;;;5013767;28;20049;-67
2021/03/12 10:07:07;;;;;;;6.85;2.88;;;7.10;72.70;;;;;;5012705;28;20104;-66
2021/03/12 10:09:33;;;;;;;;;;;7.10;73.80;;;;;;5016954;28;20053;-67
2021/03/12 10:12:00;;;;;;;12.40;3.40;;;7.20;73.40;;;;;;5013746;28;19924;-68
2021/03/12 10:14:31;;;;;;;10.68;3.08;;;7.20;74.80;;;;;;5020105;28;20033;-67
2021/03/12 10:17:10;;;;;;;9.48;3.22;;;7.30;74.30;;;;;;5022596;28;20306;-67
2021/03/12 10:20:08;;;;;;;7.30;2.92;;;7.30;74.20;;;;;;5014993;28;20244;-67
2021/03/12 10:22:36;;;;;;;11.43;3.83;;;7.50;75.60;;;;;;5006002;28;20037;-67
2021/03/12 10:25:21;;;;;;;10.85;3.25;;;7.40;74.30;;;;;;5018251;28;20026;-67
2021/03/12 10:27:49;;;;;;;9.30;3.05;;;7.50;74.40;;;;;;5014051;28;20085;-68
2021/03/12 10:30:19;;;;;;;7.55;3.05;;;7.80;74.50;;;;;;5018340;28;20133;-68
2021/03/12 10:32:47;;;;;;;10.70;3.13;;;7.80;72.70;;;;;;5018308;28;20498;-67
2021/03/12 10:35:23;;;;;;;9.57;2.85;;;7.50;71.40;;;;;;5018671;28;20041;-68
2021/03/12 10:37:49;;;;;;;9.85;2.70;;;7.40;70.80;;;;;;5019825;28;20033;-67
2021/03/12 10:40:16;;;;;;;8.35;2.47;;;7.40;72.40;;;;;;5021261;28;20038;-67
2021/03/12 10:42:42;;;;;;;10.30;2.92;;;7.40;71.60;;;;;;5018630;28;20269;-68
2021/03/12 10:45:24;;;;;;;8.88;2.25;;;7.30;71.20;;;;;;5020650;28;20590;-68
2021/03/12 10:48:05;;;;;;;14.07;3.22;;;7.30;70.10;;;;;;5018468;28;20044;-68
2021/03/12 10:50:35;;;;;;;9.73;2.53;;;7.40;71.40;;;;;;5019317;28;20387;-68
2021/03/12 10:53:12;;;;;;;9.45;2.50;;;7.50;71.20;;;;;;5014967;28;20034;-66
2021/03/12 10:55:44;;;;;;;8.50;2.33;;;7.60;71.10;;;;;;5018695;28;20402;-68
2021/03/12 10:58:29;;;;;;;15.18;2.75;;;7.80;71.10;;;;;;5017415;28;20533;-68
2021/03/12 11:01:09;;;;;;;9.57;2.08;;;7.80;70.30;;;;;;5029191;28;20025;-68
2021/03/12 11:03:36;;;;;;;9.70;2.40;;;7.80;69.90;;;;;;5010259;28;20291;-69
2021/03/12 11:06:03;;;;;;;9.63;2.20;;;8.10;70.90;;;;;;5023767;28;20025;-67
2021/03/12 11:08:29;;;;;;;9.98;2.78;;;8.10;71.00;;;;;;5026916;28;20099;-67
2021/03/12 11:10:56;;;;;;;9.52;2.22;;;8.10;70.20;;;;;;5028631;28;20060;-67
2021/03/12 11:13:21;;;;;;;9.43;2.45;;;8.20;71.40;;;;;;5028210;28;20083;-68
2021/03/12 11:15:47;;;;;;;8.18;1.95;;;8.20;69.90;;;;;;5019737;28;20125;-68
2021/03/12 11:18:13;;;;;;;7.05;1.85;;;8.10;68.90;;;;;;5023277;28;20385;-69
2021/03/12 11:20:39;;;;;;;5.72;1.65;;;8.10;68.80;;;;;;5025181;28;20551;-68
2021/03/12 11:23:05;;;;;;;8.50;1.90;;;8.10;69.50;;;;;;5010977;28;20066;-67
2021/03/12 11:25:31;;;;;;;11.13;2.10;;;7.90;68.90;;;;;;5026848;28;20079;-68
2021/03/12 11:27:56;;;;;;;7.95;1.95;;;7.80;69.40;;;;;;5028562;28;20064;-69
2021/03/12 11:30:23;;;;;;;8.38;1.85;;;7.70;70.50;;;;;;5024231;28;20040;-67
2021/03/12 11:32:48;;;;;;;10.73;2.08;;;7.80;69.30;;;;;;5018894;28;20065;-68
2021/03/12 11:35:15;;;;;;;6.45;1.75;;;7.90;68.50;;;;;;5023041;28;20115;-67
2021/03/12 11:37:42;;;;;;;8.90;2.35;;;8.10;68.30;;;;;;5015237;28;20502;-68
2021/03/12 11:40:09;;;;;;;12.57;2.17;;;8.20;67.90;;;;;;5019965;28;20034;-66
2021/03/12 11:42:37;;;;;;;11.80;1.35;;;8.10;67.40;;;;;;5011791;28;20946;-67
2021/03/12 11:45:05;;;;;;;7.00;1.70;;;7.90;66.00;;;;;;5017123;28;20040;-66
2021/03/12 11:47:31;;;;;;;8.27;1.67;;;7.90;66.80;;;;;;5020311;28;20029;-67
2021/03/12 11:49:57;;;;;;;5.72;1.67;;;8.00;67.10;;;;;;5018502;28;20485;-67
2021/03/12 11:52:26;;;;;;;6.07;1.52;;;7.90;66.80;;;;;;5024402;28;20493;-68
2021/03/12 11:54:55;;;;;;;6.75;1.52;;;7.90;68.00;;;;;;5017026;28;20082;-68
2021/03/12 11:57:22;;;;;;;5.78;1.65;;;7.90;68.60;;;;;;5016960;28;20443;-67
2021/03/12 11:59:48;;;;;;;10.50;2.28;;;8.00;68.90;;;;;;5025753;28;20541;-67
2021/03/12 12:02:15;;;;;;;6.80;1.65;;;8.10;67.50;;;;;;5023812;28;20112;-67
2021/03/12 12:04:42;;;;;;;7.00;1.75;;;8.10;66.60;;;;;;5020555;28;20049;-70
2021/03/12 12:07:08;;;;;;;8.35;1.90;;;8.10;65.80;;;;;;4999690;28;20501;-66
2021/03/12 12:09:33;;;;;;;7.82;2.20;;;8.30;67.10;;;;;;5015765;28;20044;-67
2021/03/12 12:11:59;;;;;;;5.93;1.48;;;8.50;66.70;;;;;;5026803;28;20120;-68
2021/03/12 12:14:25;;;;;;;6.68;1.75;;;8.40;66.30;;;;;;5016550;28;20616;-66
2021/03/12 12:16:50;;;;;;;7.22;1.75;;;8.30;65.70;;;;;;5026100;28;20087;-68
2021/03/12 12:19:17;;;;;;;7.18;1.60;;;8.20;66.80;;;;;;5020622;28;20498;-68
2021/03/12 12:21:43;;;;;;;10.38;2.00;;;8.10;67.30;;;;;;5027719;28;20037;-67
2021/03/12 12:24:09;;;;;;;9.75;1.60;;;8.10;66.30;;;;;;5016830;28;20033;-67
2021/03/12 12:26:36;;;;;;;9.43;1.77;;;8.10;66.10;;;;;;5026292;28;20391;-68
2021/03/12 12:29:04;;;;;;;7.80;1.70;;;8.10;66.00;;;;;;5020344;28;20029;-67
2021/03/12 12:31:33;;;;;;;9.13;1.83;;;8.10;65.10;;;;;;5023166;28;20080;-68
2021/03/12 12:34:00;;;;;;;9.90;1.67;;;8.20;65.60;;;;;;5019705;28;20043;-67
2021/03/12 12:36:26;;;;;;;9.98;2.15;;;8.20;66.90;;;;;;5023202;28;20112;-68
2021/03/12 12:38:53;;;;;;;6.22;1.65;;;8.10;66.00;;;;;;5013686;28;20029;-67
2021/03/12 12:41:19;;;;;;;10.85;1.90;;;8.00;66.10;;;;;;5021543;28;20043;-66
2021/03/12 12:43:46;;;;;;;10.13;1.98;;;8.00;67.80;;;;;;5019791;28;20084;-68
2021/03/12 12:46:12;;;;;;;10.43;1.92;;;7.90;68.90;;;;;;5015600;28;20489;-67
2021/03/12 12:48:38;;;;;;;9.85;1.85;;;7.80;69.80;;;;;;5023386;28;20044;-67
2021/03/12 12:51:04;;;;;;;9.23;2.13;;;7.90;69.80;;;;;;5022251;28;20021;-67
2021/03/12 12:53:29;;;;;;;13.38;2.00;;;8.10;66.40;;;;;;5015111;28;20108;-67
2021/03/12 12:55:55;;;;;;;7.88;1.90;;;8.30;66.50;;;;;;5017784;28;20037;-67
2021/03/12 12:58:20;;;;;;;9.38;1.67;;;8.60;67.80;;;;;;5025615;28;20022;-69
2021/03/12 13:00:46;;;;;;;9.40;2.05;;;8.70;64.10;;;;;;5031928;28;20039;-67
2021/03/12 13:03:12;;;;;;;9.65;1.70;;;8.80;66.10;;;;;;5002060;28;20056;-67
2021/03/12 13:05:38;;;;;;;9.00;2.00;;;8.80;65.80;;;;;;5014496;28;20112;-66